Friday, July 20, 2018, 4:40 AM EDT
Back to Local

KNHK, Nas Patuxent River Md

Location: Patuxent River, MD, United States Lat: 38.3
Local Time: 4:40 AM EDT ( 8:40 GMT) Lon: -76.4
Time Zone: US/Eastern Elev: 39 ft

Show me the last for .
Show Decoded

2018-07-20 03:52 METAR KNHK 200752Z AUTO 16003KT 10SM CLR 22/18 A3009 RMK AO2 SLP190 T02170183 =
2018-07-20 02:52 METAR KNHK 200652Z AUTO 18004KT 10SM CLR 22/19 A3009 RMK AO2 SLP190 T02220189 =
2018-07-20 01:52 METAR KNHK 200552Z AUTO 19006KT 10SM CLR 23/19 A3010 RMK AO2 SLP192 T02330189
                 10261 20222 50003 =
2018-07-20 00:52 METAR KNHK 200452Z AUTO 19004KT 10SM CLR 23/19 A3010 RMK AO2 SLP194 T02280194
                 403110206 =
2018-07-19 23:52 METAR KNHK 200352Z AUTO 16004KT 10SM CLR 23/19 A3010 RMK AO2 SLP194 T02330189 =
2018-07-19 22:52 METAR KNHK 200252Z 18006KT 10SM BKN300 24/17 A3009 RMK AO2 SLP189 T02390172
                 53010 =
2018-07-19 21:52 METAR KNHK 200152Z 19003KT 10SM BKN300 24/16 A3008 RMK AO2 SLP186 T02440161 =
2018-07-19 20:52 METAR KNHK 200052Z 00000KT 10SM FEW060 BKN300 23/16 A3006 RMK AO2 SLP180
                 T02330161 =
2018-07-19 19:52 METAR KNHK 192352Z 07004KT 10SM FEW060 BKN300 26/16 A3006 RMK AO2 SLP178
                 T02610156 10311 20261 55003 =
2018-07-19 18:52 METAR KNHK 192252Z 08004KT 10SM FEW060 BKN300 29/14 A3006 RMK AO2 SLP178
                 T02890139 =
2018-07-19 17:52 METAR KNHK 192152Z 09005KT 10SM FEW050 SCT300 29/13 A3005 RMK AO2 SLP177
                 T02940133 =
2018-07-19 16:52 METAR KNHK 192052Z 13005KT 10SM FEW050 SCT300 30/14 A3006 RMK AO2 SLP181
                 T03000139 56008 =
2018-07-19 15:52 METAR KNHK 191952Z 02007KT 10SM FEW050 SCT300 31/14 A3007 RMK AO2 SLP181
                 T03110139 =
2018-07-19 14:52 METAR KNHK 191852Z 08007KT 050V110 10SM FEW050 BKN300 31/14 A3008 RMK AO2 SLP185
                 T03060139 =
2018-07-19 13:52 METAR KNHK 191752Z 09006KT 10SM FEW050 BKN300 30/14 A3009 RMK AO2 SLP189
                 T03000139 10300 20233 57004 =
2018-07-19 12:52 METAR KNHK 191652Z 06005KT 10SM FEW050 BKN300 29/14 A3009 RMK AO2 SLP190
                 T02890144 =
2018-07-19 11:52 METAR KNHK 191552Z VRB03KT 10SM SCT260 29/16 A3010 RMK AO2 SLP191 T02890161 =
2018-07-19 10:52 METAR KNHK 191452Z 03006KT 10SM FEW260 28/16 A3010 RMK AO2 SLP193 T02780161
                 51015 =
2018-07-19 09:52 METAR KNHK 191352Z COR 05006KT 10SM FEW260 27/16 A3009 RMK AO2 SLP190 T02670161
                 =
2018-07-19 08:52 METAR KNHK 191252Z COR 07008KT 10SM FEW200 26/17 A3008 RMK AO2 SLP185 T02610167
                 =
2018-07-19 07:52 METAR KNHK 191152Z 07008KT 10SM FEW100 23/17 A3006 RMK AO2 SLP178 T02330172
                 10244 20206 53015 =
2018-07-19 06:52 METAR KNHK 191052Z 07013KT 10SM FEW100 23/17 A3004 RMK AO2 SLP171 T02330172 =
2018-07-19 05:52 METAR KNHK 190952Z 06011KT 10SM SCT100 23/18 A3002 RMK AO2 SLP166 T02280183 =
2018-07-19 04:52 METAR KNHK 190852Z AUTO 06005KT 10SM CLR 22/19 A3001 RMK AO2 SLP164 T02220194
                 52004 =

Support USWX by starting your Amazon purchase here.